Time;durP1;ratioP1;P1;durP2;ratioP2;P2;SDS_P1;SDS_P2;PMS_P1;PMS_P2;Temp;Humidity;BMP_temperature;BMP_pressure;BME280_temperature;BME280_humidity;BME280_pressure;Samples;Min_cycle;Max_cycle;Signal;HPM_P1;HPM_P2
2023/07/01 00:02:26;;;;;;;4.17;3.63;;;;;;;;;;6183795;28;20339;-64
2023/07/01 00:05:27;;;;;;;4.93;4.13;;;;;;;;;;6188656;28;20195;-64
2023/07/01 00:08:28;;;;;;;4.93;3.30;;;;;;;;;;6181678;28;20202;-64
2023/07/01 00:11:29;;;;;;;4.97;3.80;;;;;;;;;;6174977;28;20296;-64
2023/07/01 00:14:30;;;;;;;3.90;3.50;;;;;;;;;;6186195;28;20237;-64
2023/07/01 00:17:31;;;;;;;3.83;3.43;;;;;;;;;;6177131;28;20193;-64
2023/07/01 00:20:32;;;;;;;3.93;3.37;;;;;;;;;;6175044;28;20188;-64
2023/07/01 00:23:33;;;;;;;4.20;3.80;;;;;;;;;;6176219;28;20198;-64
2023/07/01 00:26:34;;;;;;;3.80;3.30;;;;;;;;;;6177214;28;20278;-64
2023/07/01 00:29:35;;;;;;;5.00;3.17;;;;;;;;;;6187790;28;20194;-64
2023/07/01 00:32:36;;;;;;;3.87;3.57;;;;;;;;;;6170245;28;20222;-64
2023/07/01 00:35:37;;;;;;;3.77;3.23;;;;;;;;;;6179650;28;20194;-64
2023/07/01 00:38:38;;;;;;;4.00;3.43;;;;;;;;;;6177869;28;20216;-64
2023/07/01 00:41:39;;;;;;;3.70;3.20;;;;;;;;;;6177944;28;20185;-64
2023/07/01 00:44:40;;;;;;;3.87;3.57;;;;;;;;;;6178950;28;20282;-64
2023/07/01 00:47:42;;;;;;;3.80;3.40;;;;;;;;;;6178443;28;20198;-64
2023/07/01 00:50:43;;;;;;;3.87;2.97;;;;;;;;;;6184714;28;20202;-64
2023/07/01 00:53:44;;;;;;;4.17;3.70;;;;;;;;;;6169707;28;20209;-64
2023/07/01 00:56:45;;;;;;;4.63;3.60;;;;;;;;;;6196398;28;20219;-64
2023/07/01 00:59:46;;;;;;;5.00;3.87;;;;;;;;;;6182189;28;20184;-64
2023/07/01 01:02:51;;;;;;;4.20;3.70;;;;;;;;;;6174245;28;20196;-64
2023/07/01 01:05:56;;;;;;;4.30;3.90;;;;;;;;;;6194063;28;20180;-64
2023/07/01 01:09:10;;;;;;;4.17;3.77;;;;;;;;;;6187552;28;20192;-64
2023/07/01 01:12:12;;;;;;;3.87;3.47;;;;;;;;;;6205009;28;20215;-64
2023/07/01 01:15:13;;;;;;;4.53;4.13;;;;;;;;;;6182949;28;20271;-65
2023/07/01 01:18:16;;;;;;;3.73;3.43;;;;;;;;;;6197693;28;20207;-64
2023/07/01 01:21:18;;;;;;;5.53;3.80;;;;;;;;;;6200457;28;20180;-64
2023/07/01 01:24:21;;;;;;;4.50;4.07;;;;;;;;;;6179492;28;20192;-64
2023/07/01 01:27:24;;;;;;;4.17;3.60;;;;;;;;;;6194056;28;20180;-64
2023/07/01 01:30:29;;;;;;;4.13;3.73;;;;;;;;;;6203082;28;20254;-64
2023/07/01 01:33:30;;;;;;;5.90;3.70;;;;;;;;;;6191323;28;20219;-64
2023/07/01 01:36:35;;;;;;;5.10;3.47;;;;;;;;;;6196186;28;20208;-64
2023/07/01 01:39:44;;;;;;;4.20;3.80;;;;;;;;;;6196849;28;20177;-64
2023/07/01 01:42:45;;;;;;;4.50;4.10;;;;;;;;;;6190335;28;20231;-64
2023/07/01 01:45:47;;;;;;;5.23;4.73;;;;;;;;;;6202846;28;20192;-64
2023/07/01 01:48:48;;;;;;;4.67;3.83;;;;;;;;;;6190979;28;20230;-64
2023/07/01 01:51:50;;;;;;;4.63;4.17;;;;;;;;;;6187313;28;20215;-64
2023/07/01 01:54:54;;;;;;;4.00;3.53;;;;;;;;;;6184712;28;20203;-64
2023/07/01 01:57:55;;;;;;;4.73;4.00;;;;;;;;;;6201836;28;20279;-64
2023/07/01 02:00:56;;;;;;;4.47;4.03;;;;;;;;;;6179331;28;20198;-64
2023/07/01 02:03:58;;;;;;;4.33;3.93;;;;;;;;;;6167474;28;20192;-64
2023/07/01 02:06:59;;;;;;;3.70;3.40;;;;;;;;;;6186528;28;20207;-64
2023/07/01 02:10:00;;;;;;;4.33;3.93;;;;;;;;;;6186802;28;20278;-64
2023/07/01 02:13:02;;;;;;;4.47;4.07;;;;;;;;;;6196374;28;20213;-64
2023/07/01 02:16:03;;;;;;;4.57;4.17;;;;;;;;;;6194790;28;20247;-64
2023/07/01 02:19:04;;;;;;;5.07;4.10;;;;;;;;;;6198233;28;20195;-64
2023/07/01 02:22:06;;;;;;;5.50;4.00;;;;;;;;;;6201787;28;20187;-64
2023/07/01 02:25:07;;;;;;;5.57;4.07;;;;;;;;;;6183207;28;20187;-64
2023/07/01 02:28:08;;;;;;;4.33;3.93;;;;;;;;;;6182100;28;20196;-64
2023/07/01 02:31:09;;;;;;;4.07;3.67;;;;;;;;;;6197459;28;20187;-64
2023/07/01 02:34:10;;;;;;;4.40;4.00;;;;;;;;;;6186907;28;20220;-64
2023/07/01 02:37:11;;;;;;;5.07;4.30;;;;;;;;;;6177758;28;20202;-64
2023/07/01 02:40:12;;;;;;;4.83;3.97;;;;;;;;;;6185450;28;20192;-64
2023/07/01 02:43:13;;;;;;;5.13;3.80;;;;;;;;;;6186525;28;20227;-64
2023/07/01 02:46:14;;;;;;;6.40;4.10;;;;;;;;;;6193480;28;20203;-64
2023/07/01 02:49:15;;;;;;;4.63;3.70;;;;;;;;;;6182300;28;20192;-64
2023/07/01 02:52:17;;;;;;;5.60;4.33;;;;;;;;;;6184665;28;20240;-64
2023/07/01 02:55:18;;;;;;;4.00;3.70;;;;;;;;;;6196814;28;20193;-64
2023/07/01 02:58:22;;;;;;;4.07;3.77;;;;;;;;;;6182344;28;20180;-64
2023/07/01 03:01:23;;;;;;;4.63;4.23;;;;;;;;;;6184123;28;20193;-64
2023/07/01 03:04:24;;;;;;;4.17;3.70;;;;;;;;;;6190875;28;20199;-64
2023/07/01 03:07:25;;;;;;;4.33;3.93;;;;;;;;;;6185737;28;20244;-64
2023/07/01 03:10:26;;;;;;;5.70;4.13;;;;;;;;;;6179302;28;20232;-64
2023/07/01 03:13:27;;;;;;;5.40;4.07;;;;;;;;;;6197965;28;20211;-64
2023/07/01 03:16:30;;;;;;;6.03;4.90;;;;;;;;;;6182705;28;20187;-64
2023/07/01 03:19:31;;;;;;;5.10;4.30;;;;;;;;;;6199340;28;20195;-64
2023/07/01 03:22:32;;;;;;;5.03;4.63;;;;;;;;;;6185096;28;20195;-64
2023/07/01 03:25:35;;;;;;;5.13;4.73;;;;;;;;;;6177467;28;20199;-64
2023/07/01 03:28:36;;;;;;;7.53;5.23;;;;;;;;;;6204855;28;20183;-64
2023/07/01 03:31:37;;;;;;;5.57;4.57;;;;;;;;;;6182139;28;20200;-64
2023/07/01 03:34:39;;;;;;;7.30;6.60;;;;;;;;;;6161570;28;20255;-64
2023/07/01 03:37:43;;;;;;;6.40;5.80;;;;;;;;;;6184136;28;20235;-64
2023/07/01 03:40:44;;;;;;;7.53;6.73;;;;;;;;;;6181471;28;20255;-64
2023/07/01 03:43:45;;;;;;;7.63;6.83;;;;;;;;;;6164897;28;20192;-64
2023/07/01 03:46:46;;;;;;;8.93;8.10;;;;;;;;;;6189901;28;20269;-64
2023/07/01 03:49:47;;;;;;;7.20;6.60;;;;;;;;;;6172532;28;20192;-64
2023/07/01 03:52:48;;;;;;;7.47;6.80;;;;;;;;;;6168281;28;20220;-64
2023/07/01 03:55:49;;;;;;;8.03;7.33;;;;;;;;;;6175518;28;20191;-64
2023/07/01 03:58:51;;;;;;;9.13;6.40;;;;;;;;;;6174784;28;20279;-64
2023/07/01 04:01:53;;;;;;;7.70;7.00;;;;;;;;;;6182129;28;20197;-64
2023/07/01 04:04:54;;;;;;;7.27;6.67;;;;;;;;;;6179728;28;20223;-64
2023/07/01 04:07:55;;;;;;;7.90;7.10;;;;;;;;;;6182721;28;20191;-64
2023/07/01 04:10:56;;;;;;;8.13;6.77;;;;;;;;;;6175333;28;20208;-64
2023/07/01 04:13:57;;;;;;;9.50;7.40;;;;;;;;;;6198482;28;20235;-64
2023/07/01 04:16:58;;;;;;;8.17;7.37;;;;;;;;;;6179317;28;20232;-64
2023/07/01 04:20:00;;;;;;;8.37;7.60;;;;;;;;;;6192606;28;20196;-64
2023/07/01 04:23:01;;;;;;;8.63;7.03;;;;;;;;;;6187062;28;20197;-64
2023/07/01 04:26:02;;;;;;;7.70;6.90;;;;;;;;;;6197644;28;20185;-64
2023/07/01 04:29:03;;;;;;;8.00;7.20;;;;;;;;;;6183754;28;20202;-64
2023/07/01 04:32:04;;;;;;;9.13;7.20;;;;;;;;;;6191152;28;20185;-64
2023/07/01 04:35:06;;;;;;;7.07;6.40;;;;;;;;;;6174637;28;20192;-64
2023/07/01 04:38:07;;;;;;;6.90;6.30;;;;;;;;;;6197358;28;20191;-64
2023/07/01 04:41:08;;;;;;;6.73;6.10;;;;;;;;;;6181193;28;20189;-64
2023/07/01 04:44:09;;;;;;;7.13;6.43;;;;;;;;;;6182926;28;20283;-64
2023/07/01 04:47:10;;;;;;;7.57;6.93;;;;;;;;;;6178605;28;20283;-64
2023/07/01 04:50:11;;;;;;;8.30;7.57;;;;;;;;;;6189461;28;20206;-64
2023/07/01 04:53:12;;;;;;;7.50;6.90;;;;;;;;;;6179323;28;20207;-64
2023/07/01 04:56:13;;;;;;;9.30;8.03;;;;;;;;;;6175762;28;20195;-64
2023/07/01 04:59:14;;;;;;;7.83;7.10;;;;;;;;;;6164735;28;20246;-64
2023/07/01 05:02:15;;;;;;;8.87;8.00;;;;;;;;;;6174225;28;20203;-64
2023/07/01 05:05:16;;;;;;;8.27;7.57;;;;;;;;;;6183089;28;20187;-63
2023/07/01 05:08:17;;;;;;;7.50;6.80;;;;;;;;;;6165528;28;20188;-64
2023/07/01 05:11:18;;;;;;;7.70;7.00;;;;;;;;;;6173398;28;20191;-63
2023/07/01 05:14:19;;;;;;;7.97;7.27;;;;;;;;;;6179329;28;20309;-64
2023/07/01 05:17:21;;;;;;;8.63;7.60;;;;;;;;;;6177980;28;20192;-63
2023/07/01 05:20:22;;;;;;;7.83;7.13;;;;;;;;;;6184325;28;20222;-64
2023/07/01 05:23:23;;;;;;;7.80;7.10;;;;;;;;;;6174225;28;20192;-64
2023/07/01 05:26:24;;;;;;;7.43;6.73;;;;;;;;;;6179628;28;20183;-63
2023/07/01 05:29:26;;;;;;;7.87;7.17;;;;;;;;;;6174110;28;20272;-63
2023/07/01 05:32:27;;;;;;;7.87;7.07;;;;;;;;;;6182259;28;20239;-63
2023/07/01 05:35:28;;;;;;;7.00;6.33;;;;;;;;;;6179119;28;20196;-64
2023/07/01 05:38:29;;;;;;;7.13;6.47;;;;;;;;;;6164580;28;20194;-63
2023/07/01 05:41:30;;;;;;;7.37;6.63;;;;;;;;;;6186336;28;20212;-63
2023/07/01 05:44:31;;;;;;;6.73;6.13;;;;;;;;;;6192478;28;20193;-63
2023/07/01 05:47:33;;;;;;;6.40;5.87;;;;;;;;;;6181409;28;20206;-63
2023/07/01 05:50:34;;;;;;;6.20;5.63;;;;;;;;;;6181672;28;20188;-63
2023/07/01 05:53:35;;;;;;;6.50;5.90;;;;;;;;;;6175611;28;20219;-64
2023/07/01 05:56:36;;;;;;;6.57;5.97;;;;;;;;;;6177147;28;20199;-64
2023/07/01 05:59:37;;;;;;;8.27;6.37;;;;;;;;;;6183179;28;20187;-65
2023/07/01 06:02:38;;;;;;;7.97;6.40;;;;;;;;;;6186759;28;20208;-65
2023/07/01 06:05:39;;;;;;;6.73;6.13;;;;;;;;;;6181364;28;20195;-65
2023/07/01 06:08:42;;;;;;;6.77;6.17;;;;;;;;;;6184472;28;20198;-64
2023/07/01 06:11:43;;;;;;;7.10;6.40;;;;;;;;;;6193361;28;20291;-64
2023/07/01 06:14:44;;;;;;;7.70;6.03;;;;;;;;;;6167713;28;20241;-65
2023/07/01 06:17:45;;;;;;;7.00;6.40;;;;;;;;;;6176779;28;20202;-65
2023/07/01 06:20:46;;;;;;;7.20;6.50;;;;;;;;;;6181129;28;20197;-64
2023/07/01 06:23:47;;;;;;;7.53;6.80;;;;;;;;;;6202319;28;20275;-64
2023/07/01 06:26:48;;;;;;;6.77;6.17;;;;;;;;;;6179387;28;20287;-67
2023/07/01 06:29:49;;;;;;;8.00;6.17;;;;;;;;;;6176336;28;20196;-66
2023/07/01 06:32:50;;;;;;;6.93;6.23;;;;;;;;;;6196398;28;20296;-66
2023/07/01 06:35:51;;;;;;;6.70;6.10;;;;;;;;;;6170472;28;20304;-66
2023/07/01 06:38:52;;;;;;;7.73;7.00;;;;;;;;;;6169388;28;20188;-69
2023/07/01 06:41:53;;;;;;;8.13;6.37;;;;;;;;;;6186216;28;20246;-68
2023/07/01 06:44:54;;;;;;;6.73;6.13;;;;;;;;;;6181567;28;20206;-67
2023/07/01 06:47:55;;;;;;;7.37;6.67;;;;;;;;;;6176677;28;20279;-67
2023/07/01 06:50:56;;;;;;;6.97;6.37;;;;;;;;;;6189207;28;20211;-67
2023/07/01 06:53:57;;;;;;;7.07;6.20;;;;;;;;;;6185547;28;20246;-67
2023/07/01 06:56:58;;;;;;;6.97;6.27;;;;;;;;;;6184257;28;20196;-67
2023/07/01 07:00:25;;;;;;;6.80;6.20;;;;;;;;;;6187362;28;20219;-67
2023/07/01 07:03:26;;;;;;;7.77;7.07;;;;;;;;;;6192363;28;20193;-67
2023/07/01 07:06:27;;;;;;;7.00;6.30;;;;;;;;;;6167246;28;20206;-67
2023/07/01 07:09:28;;;;;;;7.07;6.37;;;;;;;;;;6198740;28;20196;-68
2023/07/01 07:12:29;;;;;;;7.13;6.50;;;;;;;;;;6188470;28;20212;-67
2023/07/01 07:15:30;;;;;;;7.97;6.70;;;;;;;;;;6183333;28;20291;-67
2023/07/01 07:18:31;;;;;;;7.23;6.50;;;;;;;;;;6192001;28;20263;-69
2023/07/01 07:21:33;;;;;;;7.60;6.27;;;;;;;;;;6189494;28;20311;-69
2023/07/01 07:24:34;;;;;;;7.63;6.93;;;;;;;;;;6181523;28;20192;-69
2023/07/01 07:27:35;;;;;;;7.37;6.67;;;;;;;;;;6175328;28;20195;-69
2023/07/01 07:30:37;;;;;;;7.30;6.60;;;;;;;;;;6174048;28;20215;-67
2023/07/01 07:33:38;;;;;;;7.27;6.57;;;;;;;;;;6197357;28;20203;-68
2023/07/01 07:36:39;;;;;;;7.03;6.40;;;;;;;;;;6189578;28;20215;-66
2023/07/01 07:39:40;;;;;;;7.07;6.37;;;;;;;;;;6184756;28;20194;-67
2023/07/01 07:42:44;;;;;;;9.50;7.43;;;;;;;;;;6183696;28;20199;-67
2023/07/01 07:45:45;;;;;;;7.83;6.47;;;;;;;;;;6194381;28;20188;-68
2023/07/01 07:48:46;;;;;;;7.33;6.40;;;;;;;;;;6177769;28;20221;-67
2023/07/01 07:51:47;;;;;;;7.40;6.73;;;;;;;;;;6170339;28;20596;-68
2023/07/01 07:54:48;;;;;;;8.10;7.30;;;;;;;;;;6180580;28;20270;-67
2023/07/01 07:57:49;;;;;;;8.43;7.63;;;;;;;;;;6199552;28;20241;-67
2023/07/01 08:00:50;;;;;;;7.70;7.00;;;;;;;;;;6187003;28;20215;-67
2023/07/01 08:03:51;;;;;;;7.57;6.97;;;;;;;;;;6176760;28;20188;-67
2023/07/01 08:06:52;;;;;;;7.90;7.20;;;;;;;;;;6164259;28;20267;-68
2023/07/01 08:09:53;;;;;;;8.07;7.23;;;;;;;;;;6198044;28;20266;-68
2023/07/01 08:12:54;;;;;;;7.53;6.87;;;;;;;;;;6186028;28;20212;-67
2023/07/01 08:15:57;;;;;;;7.43;6.83;;;;;;;;;;6188118;28;20240;-67
2023/07/01 08:18:58;;;;;;;8.13;7.33;;;;;;;;;;6173574;28;20229;-68
2023/07/01 08:22:00;;;;;;;7.00;6.40;;;;;;;;;;6177467;28;20191;-67
2023/07/01 08:25:01;;;;;;;8.10;7.10;;;;;;;;;;6197901;28;20195;-67
2023/07/01 08:28:02;;;;;;;8.00;7.30;;;;;;;;;;6182092;28;20191;-67
2023/07/01 08:31:04;;;;;;;8.43;7.63;;;;;;;;;;6185001;28;20245;-68
2023/07/01 08:34:05;;;;;;;8.03;7.33;;;;;;;;;;6181107;28;20223;-68
2023/07/01 08:37:06;;;;;;;7.83;7.13;;;;;;;;;;6180246;28;20188;-67
2023/07/01 08:40:08;;;;;;;7.90;7.20;;;;;;;;;;6185356;28;20192;-67
2023/07/01 08:43:10;;;;;;;8.47;7.10;;;;;;;;;;6161569;28;20196;-67
2023/07/01 08:46:14;;;;;;;7.80;7.10;;;;;;;;;;6189445;28;20195;-67
2023/07/01 08:49:16;;;;;;;8.27;7.57;;;;;;;;;;6182935;28;20191;-68
2023/07/01 08:52:18;;;;;;;9.57;7.37;;;;;;;;;;6180389;28;20223;-67
2023/07/01 08:55:19;;;;;;;7.57;6.80;;;;;;;;;;6178663;28;20184;-67
2023/07/01 08:58:21;;;;;;;8.50;7.63;;;;;;;;;;6177593;28;20237;-67
2023/07/01 09:01:22;;;;;;;8.10;7.40;;;;;;;;;;6180555;28;20271;-66
2023/07/01 09:04:23;;;;;;;8.23;7.53;;;;;;;;;;6175698;28;20315;-67
2023/07/01 09:07:29;;;;;;;8.10;7.30;;;;;;;;;;6180564;28;20308;-67
2023/07/01 09:10:30;;;;;;;8.00;7.20;;;;;;;;;;6183879;28;20204;-67
2023/07/01 09:13:31;;;;;;;8.77;7.67;;;;;;;;;;6181742;28;20338;-66
2023/07/01 09:16:34;;;;;;;7.47;6.83;;;;;;;;;;6185521;28;20234;-67
2023/07/01 09:19:49;;;;;;;9.47;7.27;;;;;;;;;;6205175;28;20181;-67
2023/07/01 09:22:58;;;;;;;8.20;7.53;;;;;;;;;;6191028;28;20188;-66
2023/07/01 09:26:13;;;;;;;8.07;7.37;;;;;;;;;;6188701;28;20184;-67
2023/07/01 09:29:18;;;;;;;8.67;7.27;;;;;;;;;;6188973;28;20192;-67
2023/07/01 09:32:29;;;;;;;8.13;7.37;;;;;;;;;;6179267;28;20192;-67
2023/07/01 09:35:40;;;;;;;8.20;7.40;;;;;;;;;;6188350;28;20196;-66
2023/07/01 09:38:51;;;;;;;7.43;6.83;;;;;;;;;;6186996;28;20189;-67
2023/07/01 09:42:02;;;;;;;7.97;7.27;;;;;;;;;;6194296;28;20188;-67
2023/07/01 09:45:07;;;;;;;8.63;7.83;;;;;;;;;;6195911;28;20191;-69
2023/07/01 09:48:11;;;;;;;8.70;7.23;;;;;;;;;;6169867;28;20251;-63
2023/07/01 09:51:12;;;;;;;8.90;8.10;;;;;;;;;;6197574;28;20263;-67
2023/07/01 09:54:32;;;;;;;8.33;7.53;;;;;;;;;;6191730;28;20298;-64
2023/07/01 09:57:33;;;;;;;7.93;7.13;;;;;;;;;;6198282;28;20185;-65
2023/07/01 10:00:34;;;;;;;8.73;7.83;;;;;;;;;;6175220;28;20216;-63
2023/07/01 10:03:36;;;;;;;8.17;7.33;;;;;;;;;;6174202;28;20202;-63
2023/07/01 10:06:37;;;;;;;8.73;7.90;;;;;;;;;;6198186;28;20188;-63
2023/07/01 10:09:47;;;;;;;8.07;7.37;;;;;;;;;;6184604;28;20214;-63
2023/07/01 10:12:50;;;;;;;8.83;8.03;;;;;;;;;;6187168;28;20240;-62
2023/07/01 10:15:51;;;;;;;7.77;7.07;;;;;;;;;;6194914;28;20232;-62
2023/07/01 10:18:52;;;;;;;8.97;8.07;;;;;;;;;;6201969;28;20215;-68
2023/07/01 10:21:54;;;;;;;8.17;7.43;;;;;;;;;;6198953;28;20194;-69
2023/07/01 10:24:55;;;;;;;8.30;7.50;;;;;;;;;;6200524;28;20188;-68
2023/07/01 10:27:59;;;;;;;8.87;8.00;;;;;;;;;;6194870;28;20215;-68
2023/07/01 10:31:03;;;;;;;7.50;6.90;;;;;;;;;;6194062;28;20195;-68
2023/07/01 10:34:04;;;;;;;8.67;7.87;;;;;;;;;;6187384;28;20304;-67
2023/07/01 10:37:15;;;;;;;9.20;8.30;;;;;;;;;;6172664;28;20185;-68
2023/07/01 10:40:28;;;;;;;9.27;8.47;;;;;;;;;;6180214;28;20200;-68
2023/07/01 10:43:36;;;;;;;8.50;7.77;;;;;;;;;;6186199;28;20239;-68
2023/07/01 10:46:37;;;;;;;9.30;8.40;;;;;;;;;;6188646;28;20591;-68
2023/07/01 10:49:58;;;;;;;9.07;8.17;;;;;;;;;;6192824;28;20197;-67
2023/07/01 10:53:01;;;;;;;9.03;8.23;;;;;;;;;;6199966;28;20259;-68
2023/07/01 10:56:13;;;;;;;9.97;9.07;;;;;;;;;;6188360;28;21590;-68
2023/07/01 10:59:17;;;;;;;9.73;8.47;;;;;;;;;;6197554;28;20216;-66
2023/07/01 11:02:38;;;;;;;9.20;7.93;;;;;;;;;;6198523;28;20196;-66
2023/07/01 11:05:54;;;;;;;9.40;8.50;;;;;;;;;;6198184;28;20196;-66
2023/07/01 11:08:56;;;;;;;10.67;9.60;;;;;;;;;;6192445;28;20197;-66
2023/07/01 11:11:57;;;;;;;9.93;9.00;;;;;;;;;;6179494;28;20206;-65
2023/07/01 11:15:00;;;;;;;10.30;9.40;;;;;;;;;;6193006;28;20239;-67
2023/07/01 11:18:01;;;;;;;9.63;8.77;;;;;;;;;;6184489;28;20191;-66
2023/07/01 11:21:02;;;;;;;9.33;8.43;;;;;;;;;;6178263;28;20193;-64
2023/07/01 11:24:08;;;;;;;10.93;9.83;;;;;;;;;;6188810;28;20222;-68
2023/07/01 11:27:09;;;;;;;9.90;8.90;;;;;;;;;;6200020;28;20274;-68
2023/07/01 11:30:25;;;;;;;9.23;8.33;;;;;;;;;;6176906;28;20199;-66
2023/07/01 11:33:26;;;;;;;10.33;9.33;;;;;;;;;;6200044;28;20215;-67
2023/07/01 11:36:36;;;;;;;9.97;8.90;;;;;;;;;;6189433;28;20227;-67
2023/07/01 11:39:46;;;;;;;10.43;9.37;;;;;;;;;;6178451;28;20191;-68
2023/07/01 11:42:48;;;;;;;11.13;10.03;;;;;;;;;;6173916;28;20200;-68
2023/07/01 11:45:50;;;;;;;10.03;9.13;;;;;;;;;;6183061;28;20213;-68
2023/07/01 11:48:51;;;;;;;10.07;9.13;;;;;;;;;;6189441;28;20195;-68
2023/07/01 11:51:54;;;;;;;9.97;9.07;;;;;;;;;;6181875;28;20199;-69
2023/07/01 11:54:55;;;;;;;11.33;10.30;;;;;;;;;;6195577;28;20241;-69
2023/07/01 11:57:56;;;;;;;10.53;9.63;;;;;;;;;;6174851;28;20227;-69
2023/07/01 12:00:57;;;;;;;11.17;10.07;;;;;;;;;;6198716;28;20200;-69
2023/07/01 12:03:58;;;;;;;11.17;10.07;;;;;;;;;;6175936;28;20555;-68
2023/07/01 12:07:12;;;;;;;11.00;9.90;;;;;;;;;;6178458;28;20199;-69
2023/07/01 12:10:20;;;;;;;12.23;10.93;;;;;;;;;;6188812;28;20193;-68
2023/07/01 12:13:31;;;;;;;12.27;11.13;;;;;;;;;;6180244;28;20212;-68
2023/07/01 12:16:42;;;;;;;13.47;12.13;;;;;;;;;;6125433;28;20199;-68
2023/07/01 12:19:43;;;;;;;14.47;13.03;;;;;;;;;;6152174;28;20182;-68
2023/07/01 12:22:44;;;;;;;14.70;12.83;;;;;;;;;;6118040;28;20193;-68
2023/07/01 12:25:46;;;;;;;15.00;13.67;;;;;;;;;;6121182;28;20204;-68
2023/07/01 12:28:47;;;;;;;14.50;13.07;;;;;;;;;;6124622;28;20189;-68
2023/07/01 12:31:49;;;;;;;13.87;12.57;;;;;;;;;;6137880;28;20201;-68
2023/07/01 12:34:51;;;;;;;14.90;13.40;;;;;;;;;;6138320;28;20225;-68
2023/07/01 12:37:54;;;;;;;14.60;13.20;;;;;;;;;;6123363;28;20198;-69
2023/07/01 12:40:55;;;;;;;15.17;13.67;;;;;;;;;;6134560;28;20190;-68
2023/07/01 12:43:57;;;;;;;15.77;14.17;;;;;;;;;;6127089;28;20200;-68
2023/07/01 12:46:58;;;;;;;13.60;12.37;;;;;;;;;;6124520;28;20189;-68
2023/07/01 12:49:59;;;;;;;14.80;13.33;;;;;;;;;;6138418;28;20220;-68
2023/07/01 12:53:00;;;;;;;14.50;13.00;;;;;;;;;;6125886;28;20226;-68
2023/07/01 12:56:01;;;;;;;14.43;12.97;;;;;;;;;;6116953;28;20197;-68
2023/07/01 12:59:02;;;;;;;15.87;14.33;;;;;;;;;;6132251;28;20203;-69
2023/07/01 13:02:04;;;;;;;15.17;13.67;;;;;;;;;;6109403;28;20193;-68
2023/07/01 13:05:06;;;;;;;15.17;13.73;;;;;;;;;;6124869;28;20197;-68
2023/07/01 13:08:07;;;;;;;14.53;13.00;;;;;;;;;;6132857;28;20279;-68
2023/07/01 13:11:08;;;;;;;14.33;12.93;;;;;;;;;;6133755;28;20200;-69
2023/07/01 13:14:13;;;;;;;13.67;12.47;;;;;;;;;;6145226;28;20243;-69
2023/07/01 13:17:14;;;;;;;13.93;12.53;;;;;;;;;;6191826;28;20188;-68
2023/07/01 13:20:16;;;;;;;13.60;12.37;;;;;;;;;;6208193;28;20192;-68
2023/07/01 13:23:17;;;;;;;13.93;12.53;;;;;;;;;;6188924;28;20293;-68
2023/07/01 13:26:18;;;;;;;13.13;11.93;;;;;;;;;;6182973;28;20195;-69
2023/07/01 13:29:20;;;;;;;15.03;13.53;;;;;;;;;;6183766;28;20200;-68
2023/07/01 13:32:22;;;;;;;14.33;12.83;;;;;;;;;;6188046;28;20262;-68
2023/07/01 13:35:23;;;;;;;14.47;12.97;;;;;;;;;;6191587;28;20279;-69
2023/07/01 13:38:25;;;;;;;14.07;12.67;;;;;;;;;;6180542;28;20204;-69
2023/07/01 13:41:26;;;;;;;13.90;12.37;;;;;;;;;;6182172;28;20207;-68
2023/07/01 13:44:29;;;;;;;14.60;12.73;;;;;;;;;;6194096;28;20199;-69
2023/07/01 13:47:46;;;;;;;14.57;13.07;;;;;;;;;;6193964;28;20218;-69
2023/07/01 13:50:50;;;;;;;14.87;13.37;;;;;;;;;;6191279;28;20198;-68
2023/07/01 13:53:52;;;;;;;14.53;13.03;;;;;;;;;;6196898;28;20219;-68
2023/07/01 13:56:56;;;;;;;14.17;12.47;;;;;;;;;;6168529;28;20196;-69
2023/07/01 13:59:58;;;;;;;12.83;11.63;;;;;;;;;;6164895;28;20212;-69
2023/07/01 14:03:00;;;;;;;14.80;12.50;;;;;;;;;;6175872;28;20219;-69
2023/07/01 14:06:02;;;;;;;12.43;11.23;;;;;;;;;;6186856;28;20199;-68
2023/07/01 14:09:03;;;;;;;13.40;12.00;;;;;;;;;;6179807;28;20231;-69
2023/07/01 14:12:04;;;;;;;13.47;12.17;;;;;;;;;;6201139;28;20202;-69
2023/07/01 14:15:10;;;;;;;13.33;11.93;;;;;;;;;;6184306;28;20240;-68
2023/07/01 14:18:13;;;;;;;11.03;10.00;;;;;;;;;;6199432;28;20195;-68
2023/07/01 14:21:18;;;;;;;12.33;10.80;;;;;;;;;;6206627;28;20199;-69
2023/07/01 14:24:27;;;;;;;11.80;10.60;;;;;;;;;;6174941;28;20200;-68
2023/07/01 14:27:28;;;;;;;12.90;11.30;;;;;;;;;;6184557;28;20200;-69
2023/07/01 14:30:48;;;;;;;11.47;10.27;;;;;;;;;;6159681;28;20274;-69
2023/07/01 14:34:00;;;;;;;11.97;10.73;;;;;;;;;;6202776;28;20223;-69
2023/07/01 14:37:02;;;;;;;11.70;10.57;;;;;;;;;;6176123;28;20192;-69
2023/07/01 14:40:04;;;;;;;11.03;9.93;;;;;;;;;;6184542;28;20189;-68
2023/07/01 14:43:07;;;;;;;10.97;9.87;;;;;;;;;;6185052;28;20192;-69
2023/07/01 14:46:08;;;;;;;10.20;9.10;;;;;;;;;;6191158;28;20327;-69
2023/07/01 14:49:10;;;;;;;10.23;9.20;;;;;;;;;;6183126;28;20299;-69
2023/07/01 14:52:11;;;;;;;7.70;7.00;;;;;;;;;;6181769;28;20206;-68
2023/07/01 14:55:12;;;;;;;8.37;7.57;;;;;;;;;;6191422;28;20255;-68
2023/07/01 14:58:13;;;;;;;7.00;6.30;;;;;;;;;;6175583;28;20192;-69
2023/07/01 15:01:18;;;;;;;6.10;5.57;;;;;;;;;;6175321;28;20195;-68
2023/07/01 15:04:20;;;;;;;4.47;4.07;;;;;;;;;;6177028;28;20185;-69
2023/07/01 15:07:21;;;;;;;4.47;4.07;;;;;;;;;;6183063;28;20191;-69
2023/07/01 15:10:22;;;;;;;5.50;3.70;;;;;;;;;;6177023;28;20192;-68
2023/07/01 15:13:23;;;;;;;3.93;3.53;;;;;;;;;;6183171;28;20211;-69
2023/07/01 15:16:25;;;;;;;4.77;3.10;;;;;;;;;;6177850;28;20243;-69
2023/07/01 15:19:26;;;;;;;3.30;3.00;;;;;;;;;;6168389;28;20189;-69
2023/07/01 15:22:27;;;;;;;3.37;3.07;;;;;;;;;;6173956;28;20191;-69
2023/07/01 15:25:29;;;;;;;2.97;2.63;;;;;;;;;;6168336;28;20195;-69
2023/07/01 15:28:30;;;;;;;3.77;3.47;;;;;;;;;;6190115;28;20192;-68
2023/07/01 15:31:31;;;;;;;3.27;2.97;;;;;;;;;;6169354;28;20193;-69
2023/07/01 15:34:32;;;;;;;4.60;3.30;;;;;;;;;;6185613;28;20204;-69
2023/07/01 15:37:34;;;;;;;3.67;2.73;;;;;;;;;;6175298;28;20184;-69
2023/07/01 15:40:35;;;;;;;3.20;2.90;;;;;;;;;;6180423;28;20313;-69
2023/07/01 15:43:40;;;;;;;4.60;2.87;;;;;;;;;;6181354;28;20191;-69
2023/07/01 15:46:41;;;;;;;3.40;3.10;;;;;;;;;;6190080;28;20203;-69
2023/07/01 15:49:42;;;;;;;3.13;2.90;;;;;;;;;;6174458;28;20216;-69
2023/07/01 15:52:44;;;;;;;4.60;3.13;;;;;;;;;;6184869;28;20216;-69
2023/07/01 15:55:45;;;;;;;3.67;3.37;;;;;;;;;;6182257;28;20195;-68
2023/07/01 15:58:46;;;;;;;3.60;3.23;;;;;;;;;;6174322;28;20230;-69
2023/07/01 16:01:49;;;;;;;3.63;3.33;;;;;;;;;;6172495;28;20187;-69
2023/07/01 16:04:50;;;;;;;3.43;3.13;;;;;;;;;;6192287;28;20208;-69
2023/07/01 16:07:52;;;;;;;3.43;3.13;;;;;;;;;;6185893;28;20250;-69
2023/07/01 16:10:53;;;;;;;3.93;3.50;;;;;;;;;;6197539;28;20199;-69
2023/07/01 16:13:54;;;;;;;3.63;3.00;;;;;;;;;;6181199;28;20247;-69
2023/07/01 16:16:56;;;;;;;3.63;3.10;;;;;;;;;;6181672;28;20191;-69
2023/07/01 16:19:57;;;;;;;3.70;3.40;;;;;;;;;;6208066;28;20241;-69
2023/07/01 16:23:01;;;;;;;3.60;3.10;;;;;;;;;;6166249;28;20196;-69
2023/07/01 16:26:04;;;;;;;3.57;3.00;;;;;;;;;;6183125;28;20196;-69
2023/07/01 16:29:05;;;;;;;2.93;2.73;;;;;;;;;;6173892;28;20189;-69
2023/07/01 16:32:07;;;;;;;5.03;3.50;;;;;;;;;;6167340;28;20191;-69
2023/07/01 16:35:28;;;;;;;3.53;2.90;;;;;;;;;;6182622;28;20226;-69
2023/07/01 16:38:29;;;;;;;3.50;3.13;;;;;;;;;;6193698;28;20222;-69
2023/07/01 16:41:31;;;;;;;3.53;3.07;;;;;;;;;;6193365;28;20191;-69
2023/07/01 16:44:32;;;;;;;3.70;3.00;;;;;;;;;;6184313;28;20204;-68
2023/07/01 16:47:33;;;;;;;4.43;3.27;;;;;;;;;;6171438;28;20402;-69
2023/07/01 16:50:53;;;;;;;4.63;3.03;;;;;;;;;;6171240;28;20203;-69
2023/07/01 16:54:17;;;;;;;4.10;3.30;;;;;;;;;;6187968;28;20263;-69
2023/07/01 16:57:18;;;;;;;3.60;3.10;;;;;;;;;;6185963;28;20189;-69
2023/07/01 17:00:25;;;;;;;3.57;3.23;;;;;;;;;;6161590;28;20195;-69
2023/07/01 17:03:27;;;;;;;3.40;3.10;;;;;;;;;;6191120;28;20191;-69
2023/07/01 17:06:34;;;;;;;4.10;3.57;;;;;;;;;;6173408;28;20263;-69
2023/07/01 17:09:38;;;;;;;4.73;3.77;;;;;;;;;;6182601;28;20193;-69
2023/07/01 17:12:39;;;;;;;4.43;3.97;;;;;;;;;;6173086;28;20188;-69
2023/07/01 17:15:40;;;;;;;4.23;3.83;;;;;;;;;;6159068;28;20251;-69
2023/07/01 17:18:42;;;;;;;4.37;3.30;;;;;;;;;;6171392;28;20195;-69
2023/07/01 17:21:43;;;;;;;4.43;3.50;;;;;;;;;;6173574;28;20188;-69
2023/07/01 17:24:44;;;;;;;4.77;3.70;;;;;;;;;;6170585;28;20192;-68
2023/07/01 17:27:45;;;;;;;4.17;3.77;;;;;;;;;;6174844;28;20192;-69
2023/07/01 17:30:47;;;;;;;4.00;3.60;;;;;;;;;;6174339;28;20192;-69
2023/07/01 17:33:48;;;;;;;4.73;4.23;;;;;;;;;;6194962;28;20258;-69
2023/07/01 17:36:49;;;;;;;4.33;3.50;;;;;;;;;;6163112;28;20262;-69
2023/07/01 17:39:50;;;;;;;5.13;4.23;;;;;;;;;;6169589;28;20270;-69
2023/07/01 17:42:52;;;;;;;4.47;4.00;;;;;;;;;;6163845;28;20195;-69
2023/07/01 17:45:53;;;;;;;4.67;3.83;;;;;;;;;;6175890;28;20196;-69
2023/07/01 17:48:55;;;;;;;5.07;4.23;;;;;;;;;;6175620;28;20206;-69
2023/07/01 17:51:56;;;;;;;4.87;3.97;;;;;;;;;;6166305;28;20355;-69
2023/07/01 17:54:57;;;;;;;5.10;4.37;;;;;;;;;;6177276;28;20216;-69
2023/07/01 17:57:59;;;;;;;4.73;4.33;;;;;;;;;;6176252;28;20263;-69
2023/07/01 18:01:00;;;;;;;5.03;4.30;;;;;;;;;;6183866;28;20203;-69
2023/07/01 18:04:01;;;;;;;5.80;4.40;;;;;;;;;;6174372;28;20260;-69
2023/07/01 18:07:02;;;;;;;4.63;3.83;;;;;;;;;;6193280;28;20279;-69
2023/07/01 18:10:04;;;;;;;4.93;4.07;;;;;;;;;;6180237;28;20203;-69